createdAt,value
2019-05-23T00:01:57.041Z,101981.33
2019-05-23T00:04:39.756Z,101976.06
2019-05-23T00:07:19.515Z,101978.75
2019-05-23T00:09:49.548Z,101983.05
2019-05-23T00:12:36.730Z,101985.39
2019-05-23T00:15:13.618Z,101985.45
2019-05-23T00:17:43.304Z,101989.09
2019-05-23T00:20:13.379Z,101983.30
2019-05-23T00:22:44.549Z,101980.67
2019-05-23T00:25:15.663Z,101976.69
2019-05-23T00:27:45.217Z,101982.08
2019-05-23T00:30:22.884Z,101975.06
2019-05-23T00:32:54.136Z,101978.78
2019-05-23T00:35:24.707Z,101977.09
2019-05-23T00:37:54.581Z,101974.99
2019-05-23T00:40:23.701Z,101984.59
2019-05-23T00:42:53.889Z,101983.92
2019-05-23T00:45:23.091Z,101987.56
2019-05-23T00:47:53.047Z,101977.44
2019-05-23T00:50:24.137Z,101980.25
2019-05-23T00:52:53.803Z,101982.59
2019-05-23T00:55:23.961Z,101974.47
2019-05-23T00:57:53.552Z,101967.38
2019-05-23T01:00:24.497Z,101976.58
2019-05-23T01:02:53.918Z,101974.50
2019-05-23T01:05:23.032Z,101975.14
2019-05-23T01:07:52.630Z,101973.09
2019-05-23T01:10:22.730Z,101966.48
2019-05-23T01:12:53.636Z,101964.33
2019-05-23T01:15:24.315Z,101968.45
2019-05-23T01:17:53.796Z,101963.47
2019-05-23T01:20:24.824Z,101962.88
2019-05-23T01:22:55.719Z,101962.61
2019-05-23T01:25:26.651Z,101961.61
2019-05-23T01:27:55.848Z,101965.00
2019-05-23T01:30:26.700Z,101962.84
2019-05-23T01:33:02.507Z,101958.28
2019-05-23T01:35:33.295Z,101954.31
2019-05-23T01:38:04.390Z,101954.48
2019-05-23T01:40:33.662Z,101949.21
2019-05-23T01:43:04.352Z,101946.17
2019-05-23T01:45:34.308Z,101949.84
2019-05-23T01:48:04.064Z,101945.52
2019-05-23T01:50:33.008Z,101939.31
2019-05-23T01:53:02.745Z,101939.34
2019-05-23T01:55:31.197Z,101936.81
2019-05-23T01:58:00.353Z,101936.87
2019-05-23T02:00:30.368Z,101931.85
2019-05-23T02:02:59.759Z,101934.48
2019-05-23T02:05:29.860Z,101933.20
2019-05-23T02:08:00.249Z,101929.69
2019-05-23T02:10:30.123Z,101930.73
2019-05-23T02:12:59.836Z,101933.62
2019-05-23T02:15:28.281Z,101929.19
2019-05-23T02:17:57.881Z,101932.70
2019-05-23T02:20:27.290Z,101934.81
2019-05-23T02:22:56.766Z,101936.41
2019-05-23T02:25:26.146Z,101936.19
2019-05-23T02:27:55.654Z,101928.56
2019-05-23T02:30:35.306Z,101926.30
2019-05-23T02:32:57.064Z,101923.19
2019-05-23T02:35:26.776Z,101923.27
2019-05-23T02:37:56.793Z,101925.59
2019-05-23T02:40:27.504Z,101920.59
2019-05-23T02:43:06.793Z,101914.61
2019-05-23T02:45:39.317Z,101914.39
2019-05-23T02:48:12.025Z,101918.20
2019-05-23T02:50:44.551Z,101917.14
2019-05-23T02:53:15.225Z,101910.76
2019-05-23T02:55:44.523Z,101907.14
2019-05-23T02:58:19.638Z,101904.91
2019-05-23T03:01:08.757Z,101908.13
2019-05-23T03:03:39.318Z,101903.63
2019-05-23T03:06:11.604Z,101908.15
2019-05-23T03:08:41.770Z,101910.84
2019-05-23T03:11:27.856Z,101915.28
2019-05-23T03:13:59.732Z,101910.84
2019-05-23T03:16:31.667Z,101907.39
2019-05-23T03:19:24.263Z,101910.24
2019-05-23T03:21:55.199Z,101908.14
2019-05-23T03:24:25.052Z,101905.15
2019-05-23T03:26:58.372Z,101903.94
2019-05-23T03:29:28.484Z,101902.93
2019-05-23T03:32:01.873Z,101898.30
2019-05-23T03:34:38.519Z,101898.02
2019-05-23T03:37:07.934Z,101896.02
2019-05-23T03:39:38.209Z,101893.95
2019-05-23T03:42:08.309Z,101894.06
2019-05-23T03:44:39.010Z,101892.31
2019-05-23T03:47:09.939Z,101887.77
2019-05-23T03:49:39.224Z,101885.80
2019-05-23T03:52:10.294Z,101886.92
2019-05-23T03:54:39.885Z,101883.60
2019-05-23T03:57:10.696Z,101883.60
2019-05-23T03:59:40.713Z,101882.59
2019-05-23T04:02:11.459Z,101882.38
2019-05-23T04:04:40.612Z,101884.42
2019-05-23T04:07:10.412Z,101884.72
2019-05-23T04:09:38.791Z,101876.17
2019-05-23T04:12:07.864Z,101883.59
2019-05-23T04:14:37.146Z,101880.27
2019-05-23T04:17:07.811Z,101879.75
2019-05-23T04:19:37.091Z,101877.83
2019-05-23T04:22:08.375Z,101881.68
2019-05-23T04:24:37.544Z,101879.32
2019-05-23T04:27:07.434Z,101879.61
2019-05-23T04:29:36.882Z,101875.47
2019-05-23T04:32:08.980Z,101875.34
2019-05-23T04:34:37.119Z,101875.29
2019-05-23T04:37:06.350Z,101867.57
2019-05-23T04:39:35.461Z,101869.33
2019-05-23T04:42:05.355Z,101868.39
2019-05-23T04:44:35.346Z,101873.16
2019-05-23T04:47:05.662Z,101874.55
2019-05-23T04:49:35.428Z,101869.72
2019-05-23T04:52:04.553Z,101872.92
2019-05-23T04:54:34.265Z,101868.95
2019-05-23T04:57:03.520Z,101863.26
2019-05-23T04:59:32.605Z,101868.20
2019-05-23T05:02:02.051Z,101865.22
2019-05-23T05:04:31.943Z,101867.59
2019-05-23T05:07:01.249Z,101868.18
2019-05-23T05:09:32.405Z,101867.39
2019-05-23T05:12:01.828Z,101870.16
2019-05-23T05:14:31.319Z,101876.56
2019-05-23T05:17:00.716Z,101876.63
2019-05-23T05:19:30.462Z,101878.48
2019-05-23T05:21:59.597Z,101878.55
2019-05-23T05:24:28.733Z,101882.22
2019-05-23T05:26:57.852Z,101882.34
2019-05-23T05:29:26.994Z,101882.80
2019-05-23T05:31:56.403Z,101885.05
2019-05-23T05:34:25.534Z,101884.63
2019-05-23T05:36:54.675Z,101883.83
2019-05-23T05:39:24.657Z,101882.78
2019-05-23T05:41:54.192Z,101878.27
2019-05-23T05:44:23.322Z,101884.50
2019-05-23T05:46:56.438Z,101893.86
2019-05-23T05:49:53.896Z,101886.19
2019-05-23T05:52:23.290Z,101889.83
2019-05-23T05:54:52.421Z,101885.28
2019-05-23T05:57:21.631Z,101891.92
2019-05-23T05:59:50.782Z,101898.14
2019-05-23T06:02:20.445Z,101899.06
2019-05-23T06:04:48.885Z,101905.75
2019-05-23T06:07:34.927Z,101908.96
2019-05-23T06:10:05.583Z,101900.78
2019-05-23T06:12:34.973Z,101904.30
2019-05-23T06:15:06.758Z,101903.34
2019-05-23T06:17:36.059Z,101904.25
2019-05-23T06:20:08.404Z,101909.56
2019-05-23T06:22:38.060Z,101906.80
2019-05-23T06:25:08.315Z,101909.00
2019-05-23T06:27:40.184Z,101917.05
2019-05-23T06:30:13.744Z,101908.85
2019-05-23T06:32:43.071Z,101906.59
2019-05-23T06:35:14.479Z,101907.08
2019-05-23T06:37:43.705Z,101900.66
2019-05-23T06:40:13.836Z,101907.43
2019-05-23T06:42:44.318Z,101906.91
2019-05-23T06:45:13.973Z,101899.64
2019-05-23T06:47:43.489Z,101901.73
2019-05-23T06:50:16.228Z,101909.84
2019-05-23T06:52:45.740Z,101896.33
2019-05-23T06:55:15.830Z,101896.97
2019-05-23T06:57:45.911Z,101889.49
2019-05-23T07:00:17.034Z,101889.76
2019-05-23T07:02:47.330Z,101891.37
2019-05-23T07:05:18.887Z,101898.02
2019-05-23T07:07:48.173Z,101893.95
2019-05-23T07:10:17.293Z,101893.78
2019-05-23T07:12:47.517Z,101902.16
2019-05-23T07:15:16.703Z,101905.41
2019-05-23T07:17:46.218Z,101895.23
2019-05-23T07:20:15.473Z,101897.19
2019-05-23T07:22:44.968Z,101903.03
2019-05-23T07:25:14.254Z,101898.77
2019-05-23T07:27:43.879Z,101894.16
2019-05-23T07:30:21.615Z,101898.25
2019-05-23T07:32:50.870Z,101896.91
2019-05-23T07:35:20.937Z,101890.66
2019-05-23T07:37:50.153Z,101894.83
2019-05-23T07:40:19.416Z,101899.98
2019-05-23T07:42:49.113Z,101898.16
2019-05-23T07:45:22.421Z,101896.30
2019-05-23T07:47:51.553Z,101896.87
2019-05-23T07:50:20.810Z,101897.69
2019-05-23T07:52:50.644Z,101891.91
2019-05-23T07:55:33.607Z,101895.41
2019-05-23T07:58:03.034Z,101891.78
2019-05-23T08:00:39.402Z,101889.55
2019-05-23T08:03:10.209Z,101890.95
2019-05-23T08:05:39.371Z,101884.42
2019-05-23T08:08:08.597Z,101878.75
2019-05-23T08:10:37.786Z,101884.58
2019-05-23T08:13:07.160Z,101881.85
2019-05-23T08:15:36.301Z,101882.13
2019-05-23T08:18:06.316Z,101880.03
2019-05-23T08:20:35.433Z,101885.36
2019-05-23T08:23:04.581Z,101888.63
2019-05-23T08:25:34.254Z,101883.56
2019-05-23T08:28:04.570Z,101879.92
2019-05-23T08:30:33.976Z,101876.97
2019-05-23T08:33:03.669Z,101880.56
2019-05-23T08:35:33.427Z,101880.38
2019-05-23T08:38:02.993Z,101873.80
2019-05-23T08:40:32.715Z,101881.46
2019-05-23T08:43:01.899Z,101870.05
2019-05-23T08:45:31.020Z,101871.66
2019-05-23T08:48:00.497Z,101873.26
2019-05-23T08:50:29.197Z,101868.39
2019-05-23T08:52:58.337Z,101866.89
2019-05-23T08:55:29.190Z,101861.40
2019-05-23T08:57:58.867Z,101868.41
2019-05-23T09:00:29.619Z,101862.48
2019-05-23T09:02:59.370Z,101865.45
2019-05-23T09:05:33.613Z,101869.64
2019-05-23T09:08:03.726Z,101860.72
2019-05-23T09:10:34.570Z,101864.51
2019-05-23T09:13:04.543Z,101861.19
2019-05-23T09:15:33.731Z,101859.09
2019-05-23T09:18:04.757Z,101848.70
2019-05-23T09:20:33.992Z,101850.72
2019-05-23T09:23:03.193Z,101856.71
2019-05-23T09:25:32.321Z,101855.27
2019-05-23T09:28:02.191Z,101853.25
2019-05-23T09:30:32.440Z,101850.89
2019-05-23T09:33:02.039Z,101842.59
2019-05-23T09:35:32.198Z,101844.03
2019-05-23T09:38:01.322Z,101841.72
2019-05-23T09:40:31.100Z,101847.80
2019-05-23T09:43:00.293Z,101842.95
2019-05-23T09:45:29.883Z,101843.46
2019-05-23T09:47:59.090Z,101832.47
2019-05-23T09:50:28.470Z,101833.70
2019-05-23T09:52:56.863Z,101841.48
2019-05-23T09:55:26.312Z,101836.74
2019-05-23T09:57:54.988Z,101830.66
2019-05-23T10:00:25.929Z,101831.38
2019-05-23T10:02:55.398Z,101832.09
2019-05-23T10:05:40.634Z,101828.93
2019-05-23T10:07:53.847Z,101833.83
2019-05-23T10:10:22.481Z,101821.06
2019-05-23T10:12:50.878Z,101829.94
2019-05-23T10:15:33.850Z,101833.70
2019-05-23T10:18:02.508Z,101825.46
2019-05-23T10:20:31.056Z,101821.76
2019-05-23T10:22:59.409Z,101815.66
2019-05-23T10:25:27.744Z,101825.12
2019-05-23T10:27:56.089Z,101814.95
2019-05-23T10:30:24.910Z,101820.54
2019-05-23T10:32:53.245Z,101812.75
2019-05-23T10:35:21.619Z,101811.93
2019-05-23T10:37:50.059Z,101816.05
2019-05-23T10:40:19.133Z,101803.34
2019-05-23T10:42:47.465Z,101804.31
2019-05-23T10:45:16.117Z,101795.55
2019-05-23T10:47:44.524Z,101794.11
2019-05-23T10:50:12.855Z,101787.94
2019-05-23T10:52:41.301Z,101787.58
2019-05-23T10:55:09.636Z,101791.86
2019-05-23T10:57:38.040Z,101792.22
2019-05-23T11:00:07.564Z,101787.81
2019-05-23T11:02:35.937Z,101793.46
2019-05-23T11:05:12.802Z,101801.87
2019-05-23T11:07:38.203Z,101787.92
2019-05-23T11:10:06.706Z,101790.31
2019-05-23T11:12:35.073Z,101785.48
2019-05-23T11:15:04.798Z,101786.34
2019-05-23T11:17:34.180Z,101771.37
2019-05-23T11:20:03.120Z,101765.33
2019-05-23T11:22:31.577Z,101767.73
2019-05-23T11:25:01.385Z,101757.59
2019-05-23T11:27:33.417Z,101759.22
2019-05-23T11:30:02.838Z,101756.82
2019-05-23T11:32:38.661Z,101753.13
2019-05-23T11:35:07.229Z,101755.64
2019-05-23T11:37:35.575Z,101748.72
2019-05-23T11:40:04.976Z,101747.86
2019-05-23T11:42:33.337Z,101746.91
2019-05-23T11:45:05.954Z,101746.35
2019-05-23T11:47:34.419Z,101744.19
2019-05-23T11:50:03.423Z,101744.55
2019-05-23T11:52:31.757Z,101741.77
2019-05-23T11:55:00.296Z,101733.88
2019-05-23T11:57:28.855Z,101731.86
2019-05-23T11:59:57.320Z,101729.67
2019-05-23T12:02:27.310Z,101732.52
2019-05-23T12:04:57.468Z,101730.11
2019-05-23T12:07:30.163Z,101736.70
2019-05-23T12:09:58.566Z,101728.73
2019-05-23T12:12:26.997Z,101728.54
2019-05-23T12:14:56.193Z,101728.42
2019-05-23T12:17:26.109Z,101717.78
2019-05-23T12:22:42.779Z,101719.06
2019-05-23T12:25:21.765Z,101725.16
2019-05-23T12:27:41.855Z,101719.53
2019-05-23T12:30:12.829Z,101712.31
2019-05-23T12:32:41.188Z,101713.84
2019-05-23T12:35:11.803Z,101715.28
2019-05-23T12:37:39.857Z,101714.66
2019-05-23T12:40:15.226Z,101705.64
2019-05-23T12:42:43.657Z,101701.98
2019-05-23T12:45:12.085Z,101698.17
2019-05-23T12:47:44.545Z,101693.80
2019-05-23T12:50:14.930Z,101696.16
2019-05-23T12:52:43.351Z,101701.02
2019-05-23T12:55:11.708Z,101691.13
2019-05-23T12:57:40.058Z,101698.94
2019-05-23T13:00:10.100Z,101691.68
2019-05-23T13:02:38.521Z,101686.20
2019-05-23T13:05:07.500Z,101680.59
2019-05-23T13:07:36.922Z,101677.75
2019-05-23T13:10:06.431Z,101679.23
2019-05-23T13:12:34.940Z,101669.83
2019-05-23T13:15:04.677Z,101674.56
2019-05-23T13:17:45.837Z,101663.26
2019-05-23T13:20:14.216Z,101661.75
2019-05-23T13:22:42.577Z,101656.06
2019-05-23T13:25:11.271Z,101653.98
2019-05-23T13:27:39.752Z,101653.02
2019-05-23T13:30:08.376Z,101657.13
2019-05-23T13:32:37.220Z,101657.44
2019-05-23T13:35:06.125Z,101654.77
2019-05-23T13:37:34.772Z,101649.27
2019-05-23T13:40:04.493Z,101646.71
2019-05-23T13:42:32.871Z,101642.47
2019-05-23T13:45:01.253Z,101642.63
2019-05-23T13:47:30.325Z,101642.04
2019-05-23T13:49:58.721Z,101646.16
2019-05-23T13:52:27.057Z,101649.22
2019-05-23T13:54:55.467Z,101642.79
2019-05-23T13:57:23.871Z,101640.55
2019-05-23T13:59:52.544Z,101646.50
2019-05-23T14:02:21.207Z,101645.51
2019-05-23T14:04:49.722Z,101642.02
2019-05-23T14:07:18.133Z,101638.86
2019-05-23T14:09:46.840Z,101637.58
2019-05-23T14:12:22.669Z,101628.50
2019-05-23T14:14:45.514Z,101630.77
2019-05-23T14:17:18.259Z,101629.87
2019-05-23T14:19:46.639Z,101631.25
2019-05-23T14:22:14.966Z,101625.64
2019-05-23T14:24:43.689Z,101631.14
2019-05-23T14:27:23.061Z,101634.73
2019-05-23T14:29:51.424Z,101642.21
2019-05-23T14:32:21.545Z,101631.89
2019-05-23T14:34:51.383Z,101630.59
2019-05-23T14:37:27.499Z,101629.47
2019-05-23T14:39:57.221Z,101632.41
2019-05-23T14:42:33.209Z,101633.16
2019-05-23T14:45:01.598Z,101638.34
2019-05-23T14:47:31.564Z,101626.97
2019-05-23T14:50:04.257Z,101628.52
2019-05-23T14:52:34.257Z,101622.44
2019-05-23T14:55:04.242Z,101630.41
2019-05-23T14:57:33.385Z,101628.20
2019-05-23T15:00:01.730Z,101624.09
2019-05-23T15:02:30.532Z,101622.62
2019-05-23T15:04:59.399Z,101617.48
2019-05-23T15:07:28.464Z,101622.70
2019-05-23T15:09:56.897Z,101625.98
2019-05-23T15:12:25.367Z,101628.74
2019-05-23T15:14:53.695Z,101628.39
2019-05-23T15:17:22.303Z,101625.10
2019-05-23T15:19:50.660Z,101628.67
2019-05-23T15:22:19.086Z,101626.08
2019-05-23T15:24:47.433Z,101628.56
2019-05-23T15:27:15.964Z,101624.59
2019-05-23T15:29:44.280Z,101622.18
2019-05-23T15:32:12.647Z,101622.70
2019-05-23T15:34:41.091Z,101627.32
2019-05-23T15:37:09.428Z,101631.11
2019-05-23T15:39:37.772Z,101626.97
2019-05-23T15:42:06.113Z,101624.48
2019-05-23T15:44:34.537Z,101627.23
2019-05-23T15:47:02.910Z,101623.11
2019-05-23T15:49:32.634Z,101634.66
2019-05-23T15:52:08.115Z,101628.95
2019-05-23T15:54:38.260Z,101620.33
2019-05-23T15:57:14.174Z,101624.45
2019-05-23T15:59:44.252Z,101621.13
2019-05-23T16:02:16.918Z,101621.28
2019-05-23T16:04:45.281Z,101617.22
2019-05-23T16:07:13.829Z,101613.09
2019-05-23T16:09:42.378Z,101615.09
2019-05-23T16:12:11.784Z,101616.87
2019-05-23T16:14:40.299Z,101627.56
2019-05-23T16:17:09.304Z,101616.36
2019-05-23T16:19:37.720Z,101620.26
2019-05-23T16:22:06.624Z,101621.72
2019-05-23T16:24:35.039Z,101622.14
2019-05-23T16:27:04.547Z,101627.68
2019-05-23T16:29:33.409Z,101633.38
2019-05-23T16:32:02.045Z,101627.53
2019-05-23T16:34:31.041Z,101628.82
2019-05-23T16:36:59.385Z,101624.06
2019-05-23T16:39:45.414Z,101629.38
2019-05-23T16:41:58.033Z,101630.02
2019-05-23T16:44:26.555Z,101629.66
2019-05-23T16:46:54.924Z,101625.87
2019-05-23T16:49:23.256Z,101629.31
2019-05-23T16:51:51.746Z,101630.41
2019-05-23T16:54:21.740Z,101620.41
2019-05-23T16:56:51.905Z,101626.98
2019-05-23T16:59:27.893Z,101626.13
2019-05-23T17:02:05.607Z,101618.72
2019-05-23T17:04:35.559Z,101614.94
2019-05-23T17:07:14.445Z,101617.14
2019-05-23T17:09:44.683Z,101617.14
2019-05-23T17:12:32.344Z,101629.33
2019-05-23T17:15:20.545Z,101614.22
2019-05-23T17:18:02.169Z,101615.61
2019-05-23T17:20:32.234Z,101609.77
2019-05-23T17:23:02.207Z,101614.59
2019-05-23T17:25:47.150Z,101617.34
2019-05-23T17:28:17.149Z,101614.91
2019-05-23T17:30:49.929Z,101614.16
2019-05-23T17:33:18.888Z,101615.52
2019-05-23T17:35:47.340Z,101616.91
2019-05-23T17:38:15.832Z,101612.95
2019-05-23T17:40:44.276Z,101612.59
2019-05-23T17:43:12.963Z,101611.36
2019-05-23T17:45:41.585Z,101606.13
2019-05-23T17:48:10.126Z,101605.73
2019-05-23T17:50:38.476Z,101608.23
2019-05-23T17:53:06.844Z,101619.08
2019-05-23T17:55:35.466Z,101605.27
2019-05-23T17:58:03.783Z,101609.05
2019-05-23T18:00:39.891Z,101610.02
2019-05-23T18:03:08.763Z,101604.62
2019-05-23T18:05:37.592Z,101602.30
2019-05-23T18:08:07.584Z,101602.38
2019-05-23T18:10:44.513Z,101600.02
2019-05-23T18:13:07.193Z,101602.64
2019-05-23T18:15:35.896Z,101599.62
2019-05-23T18:18:04.371Z,101607.61
2019-05-23T18:20:32.993Z,101601.98
2019-05-23T18:23:01.414Z,101601.38
2019-05-23T18:25:30.051Z,101599.91
2019-05-23T18:27:59.077Z,101606.98
2019-05-23T18:30:45.249Z,101605.56
2019-05-23T18:33:15.215Z,101604.44
2019-05-23T18:35:43.733Z,101607.70
2019-05-23T18:38:12.088Z,101605.55
2019-05-23T18:40:40.425Z,101610.03
2019-05-23T18:43:09.490Z,101603.61
2019-05-23T18:45:38.315Z,101608.30
2019-05-23T18:48:07.453Z,101615.22
2019-05-23T18:50:36.160Z,101608.35
2019-05-23T18:53:05.219Z,101604.97
2019-05-23T18:55:34.025Z,101608.06
2019-05-23T18:58:02.482Z,101611.47
2019-05-23T19:00:38.584Z,101611.20
2019-05-23T19:03:06.920Z,101615.06
2019-05-23T19:05:35.266Z,101609.03
2019-05-23T19:08:03.788Z,101616.20
2019-05-23T19:10:32.389Z,101611.06
2019-05-23T19:13:00.730Z,101617.66
2019-05-23T19:15:30.377Z,101614.38
2019-05-23T19:17:58.844Z,101614.16
2019-05-23T19:20:27.169Z,101615.98
2019-05-23T19:22:55.529Z,101616.03
2019-05-23T19:25:24.745Z,101612.52
2019-05-23T19:27:53.063Z,101613.78
2019-05-23T19:30:21.443Z,101607.02
2019-05-23T19:32:49.780Z,101615.98
2019-05-23T19:35:18.145Z,101616.00
2019-05-23T19:37:46.776Z,101613.30
2019-05-23T19:40:15.176Z,101607.14
2019-05-23T19:42:43.514Z,101610.52
2019-05-23T19:45:11.870Z,101613.13
2019-05-23T19:47:40.259Z,101612.77
2019-05-23T19:50:08.592Z,101611.03
2019-05-23T19:52:36.948Z,101609.03
2019-05-23T19:55:05.956Z,101608.50
2019-05-23T19:57:34.291Z,101605.53
2019-05-23T20:00:02.674Z,101609.25
2019-05-23T20:02:32.911Z,101604.87
2019-05-23T20:05:03.403Z,101599.74
2019-05-23T20:07:32.694Z,101604.19
2019-05-23T20:10:01.648Z,101600.25
2019-05-23T20:12:30.104Z,101613.85
2019-05-23T20:14:58.770Z,101611.06
2019-05-23T20:17:27.750Z,101608.93
2019-05-23T20:19:56.410Z,101614.94
2019-05-23T20:22:24.974Z,101610.94
2019-05-23T20:24:55.436Z,101610.41
2019-05-23T20:27:23.926Z,101609.70
2019-05-23T20:29:52.586Z,101612.25
2019-05-23T20:32:22.387Z,101607.09
2019-05-23T20:34:51.233Z,101606.53
2019-05-23T20:37:20.067Z,101605.14
2019-05-23T20:39:48.478Z,101607.19
2019-05-23T20:42:18.375Z,101602.87
2019-05-23T20:44:50.638Z,101604.91
2019-05-23T20:47:19.738Z,101602.45
2019-05-23T20:49:49.187Z,101611.97
2019-05-23T20:52:17.955Z,101608.14
2019-05-23T20:54:46.325Z,101611.19
2019-05-23T20:57:14.931Z,101606.89
2019-05-23T20:59:43.292Z,101610.98
2019-05-23T21:02:11.689Z,101610.61
2019-05-23T21:04:40.231Z,101603.65
2019-05-23T21:07:14.606Z,101598.25
2019-05-23T21:09:43.076Z,101602.20
2019-05-23T21:12:28.461Z,101598.13
2019-05-23T21:14:42.868Z,101602.63
2019-05-23T21:17:12.535Z,101597.72
2019-05-23T21:19:44.384Z,101598.81
2019-05-23T21:22:14.231Z,101596.89
2019-05-23T21:24:42.612Z,101602.73
2019-05-23T21:27:14.368Z,101603.11
2019-05-23T21:30:10.788Z,101598.00
2019-05-23T21:32:39.196Z,101598.02
2019-05-23T21:35:10.983Z,101601.53
2019-05-23T21:37:41.133Z,101591.33
2019-05-23T21:40:11.240Z,101595.22
2019-05-23T21:42:47.655Z,101592.43
2019-05-23T21:45:14.056Z,101589.44
2019-05-23T21:47:46.523Z,101591.97
2019-05-23T21:50:14.903Z,101590.78
2019-05-23T21:52:46.478Z,101590.80
2019-05-23T21:55:18.865Z,101589.45
2019-05-23T21:57:47.305Z,101588.84
2019-05-23T22:00:20.631Z,101596.66
2019-05-23T22:02:50.705Z,101595.60
2019-05-23T22:05:19.573Z,101589.03
2019-05-23T22:07:48.042Z,101592.69
2019-05-23T22:10:16.549Z,101589.20
2019-05-23T22:13:01.925Z,101587.05
2019-05-23T22:15:18.703Z,101591.88
2019-05-23T22:17:48.912Z,101593.61
2019-05-23T22:20:18.808Z,101587.58
2019-05-23T22:22:54.671Z,101588.55
2019-05-23T22:25:24.723Z,101586.03
2019-05-23T22:27:53.073Z,101585.05
2019-05-23T22:30:21.427Z,101587.56
2019-05-23T22:32:51.751Z,101589.55
2019-05-23T22:38:09.484Z,101583.35
2019-05-23T22:40:38.784Z,101586.54
2019-05-23T22:43:20.252Z,101583.24
2019-05-23T22:45:37.687Z,101581.45
2019-05-23T22:48:10.210Z,101579.59
2019-05-23T22:50:39.521Z,101580.17
2019-05-23T22:53:12.582Z,101577.41
2019-05-23T22:55:40.067Z,101579.48
2019-05-23T22:58:13.917Z,101575.31
2019-05-23T23:00:44.039Z,101570.20
2019-05-23T23:03:17.503Z,101577.69
2019-05-23T23:05:45.887Z,101575.00
2019-05-23T23:08:18.058Z,101575.45
2019-05-23T23:10:46.887Z,101578.86
2019-05-23T23:13:15.436Z,101578.95
2019-05-23T23:15:44.158Z,101573.73
2019-05-23T23:18:12.489Z,101571.55
2019-05-23T23:20:40.888Z,101576.64
2019-05-23T23:23:10.060Z,101575.30
2019-05-23T23:25:39.588Z,101575.12
2019-05-23T23:28:07.955Z,101576.47
2019-05-23T23:30:40.688Z,101578.22
2019-05-23T23:33:09.019Z,101578.12
2019-05-23T23:35:37.366Z,101576.38
2019-05-23T23:38:07.597Z,101569.72
2019-05-23T23:40:35.927Z,101571.46
2019-05-23T23:43:05.164Z,101566.84
2019-05-23T23:45:51.817Z,101570.90
2019-05-23T23:48:37.976Z,101568.54
2019-05-23T23:51:24.116Z,101558.38
2019-05-23T23:54:10.262Z,101559.14
2019-05-23T23:56:56.543Z,101556.75
2019-05-23T23:59:24.212Z,101552.31
